Other Surface Observations
Issued by NWS Great Falls, MT

Home | Current Version | Previous Version | Text Only | Print | Product List | Glossary On
Versions: 1 2 3 4 5 6 7 8 9 10 11 12 13 14 15 16 17 18 19 20 21 22 23 24 25 26 27 28 29 30 31 32 33 34 35 36 37 38 39 40 41 42 43 44 45 46 47 48 49 50
000
SXUS55 KTFX 020154
OSOTFX
AREA AWOS OBSERVATIONS
NATIONAL WEATHER SERVICE GREAT FALLS MT
0750 PM MDT MON JUN 01 2015

METAR KPWD 020145Z AUTO 01014G19KT 10SM 24/10 A2980 RMK PLENTYWOOD
METAR KPO1 020145Z AUTO 36011KT 26/12 A2977 RMK POPLAR
METAR K1S3 020145Z AUTO 08004KT 10SM 25/12 A2974 RMK FORSYTH
METAR KS71 020145Z AUTO 05007KT 10SM 24/07 A2984 RMK CHINOOK
METAR K6S0 020145Z AUTO 24016G22KT 5SM 16/09 A2991 RMK BIG TIMBER
METAR K79S 020145Z AUTO 19021G27KT 10SM 19/12 A2990 RMK FORT BENTON
METAR K38S 020145Z AUTO 00000KT 10SM 17/09 A2994 RMK DEER LODGE
METAR K3U3 020145Z AUTO 07003KT 10SM 16/09 A2991 RMK ANACONDA
METAR K6S5 020145Z AUTO 01005KT 10SM 18/10 A2984 RMK HAMILTON
METAR KS59 020145Z AUTO 00000KT 6SM 14/14 A2987 RMK LIBBY
METAR K88M 020145Z AUTO 00000KT 10SM 24/06 A2977 RMK EUREKA



USA.gov is the U.S. government's official web portal to all federal, state and local government web resources and services.